Terminal Aerodrome Forecast
Issued by NWS Duluth, MN

Home | Current Version | Previous Version | Text Only | Print | Product List | Glossary On
Versions: 1 2 3 4 5 6 7 8 9 10 11 12 13 14 15 16 17 18 19 20 21 22 23
017
FTUS43 KDLH 230531
TAFINL
TAF
KINL 230531Z 2306/2406 36010KT P6SM -SHRASN SCT010 OVC025
      TEMPO 2306/2308 2SM -SHSN OVC008
     FM230800 36009KT P6SM VCSH OVC025
     FM231000 35009KT P6SM BKN040 BKN100
     FM232100 05006KT P6SM BKN060=

USA.gov is the U.S. government's official web portal to all federal, state and local government web resources and services.